sensor_id;sensor_type;location;lat;lon;timestamp;pressure;altitude;pressure_sealevel;temperature;humidity
41830;BME280;38614;43.472;23.936;2023-04-03T00:01:50;99603.69;;;6.84;100.00
41830;BME280;38614;43.472;23.936;2023-04-03T00:04:38;99609.06;;;6.93;100.00
41830;BME280;38614;43.472;23.936;2023-04-03T00:07:25;99599.09;;;6.89;100.00
41830;BME280;38614;43.472;23.936;2023-04-03T00:10:13;99601.31;;;6.83;100.00
41830;BME280;38614;43.472;23.936;2023-04-03T00:13:04;99586.34;;;6.68;100.00
41830;BME280;38614;43.472;23.936;2023-04-03T00:15:52;99601.97;;;6.92;100.00
41830;BME280;38614;43.472;23.936;2023-04-03T00:18:40;99607.47;;;6.92;100.00
41830;BME280;38614;43.472;23.936;2023-04-03T00:21:28;99602.81;;;6.80;100.00
41830;BME280;38614;43.472;23.936;2023-04-03T00:24:15;99603.44;;;7.02;100.00
41830;BME280;38614;43.472;23.936;2023-04-03T00:27:03;99613.19;;;6.87;100.00
41830;BME280;38614;43.472;23.936;2023-04-03T00:29:51;99608.19;;;6.77;100.00
41830;BME280;38614;43.472;23.936;2023-04-03T00:32:39;99605.69;;;6.72;100.00
41830;BME280;38614;43.472;23.936;2023-04-03T00:35:28;99615.41;;;6.69;100.00
41830;BME280;38614;43.472;23.936;2023-04-03T00:38:17;99583.53;;;6.40;100.00
41830;BME280;38614;43.472;23.936;2023-04-03T00:41:05;99607.63;;;6.59;100.00
41830;BME280;38614;43.472;23.936;2023-04-03T00:43:53;99596.78;;;6.63;100.00
41830;BME280;38614;43.472;23.936;2023-04-03T00:46:40;99596.66;;;6.59;100.00
41830;BME280;38614;43.472;23.936;2023-04-03T00:49:28;99578.13;;;6.56;100.00
41830;BME280;38614;43.472;23.936;2023-04-03T00:52:19;99608.91;;;7.02;100.00
41830;BME280;38614;43.472;23.936;2023-04-03T00:55:09;99566.66;;;7.06;100.00
41830;BME280;38614;43.472;23.936;2023-04-03T00:57:57;99588.97;;;7.17;100.00
41830;BME280;38614;43.472;23.936;2023-04-03T01:00:52;99607.31;;;7.01;100.00
41830;BME280;38614;43.472;23.936;2023-04-03T01:03:45;99598.00;;;6.77;100.00
41830;BME280;38614;43.472;23.936;2023-04-03T01:06:36;99597.31;;;6.80;100.00
41830;BME280;38614;43.472;23.936;2023-04-03T01:09:28;99608.44;;;6.72;100.00
41830;BME280;38614;43.472;23.936;2023-04-03T01:12:26;99588.53;;;6.63;100.00
41830;BME280;38614;43.472;23.936;2023-04-03T01:15:25;99599.63;;;6.42;100.00
41830;BME280;38614;43.472;23.936;2023-04-03T01:18:13;99590.06;;;6.36;100.00
41830;BME280;38614;43.472;23.936;2023-04-03T01:24:36;99579.19;;;6.27;100.00
41830;BME280;38614;43.472;23.936;2023-04-03T01:27:31;99572.22;;;6.29;100.00
41830;BME280;38614;43.472;23.936;2023-04-03T01:30:20;99601.13;;;6.39;100.00
41830;BME280;38614;43.472;23.936;2023-04-03T01:33:08;99549.94;;;6.19;100.00
41830;BME280;38614;43.472;23.936;2023-04-03T01:35:56;99600.09;;;6.32;100.00
41830;BME280;38614;43.472;23.936;2023-04-03T01:38:45;99602.53;;;6.33;100.00
41830;BME280;38614;43.472;23.936;2023-04-03T01:41:32;99592.91;;;6.39;100.00
41830;BME280;38614;43.472;23.936;2023-04-03T01:44:28;99560.13;;;6.06;100.00
41830;BME280;38614;43.472;23.936;2023-04-03T01:47:16;99610.53;;;6.26;100.00
41830;BME280;38614;43.472;23.936;2023-04-03T01:50:04;99609.72;;;6.25;100.00
41830;BME280;38614;43.472;23.936;2023-04-03T01:52:54;99608.81;;;6.34;100.00
41830;BME280;38614;43.472;23.936;2023-04-03T01:55:42;99604.81;;;6.43;100.00
41830;BME280;38614;43.472;23.936;2023-04-03T01:58:29;99603.66;;;6.32;100.00
41830;BME280;38614;43.472;23.936;2023-04-03T02:01:17;99613.03;;;6.55;100.00
41830;BME280;38614;43.472;23.936;2023-04-03T02:04:05;99611.19;;;6.60;100.00
41830;BME280;38614;43.472;23.936;2023-04-03T02:06:56;99626.06;;;6.46;100.00
41830;BME280;38614;43.472;23.936;2023-04-03T02:10:02;99619.81;;;6.34;100.00
41830;BME280;38614;43.472;23.936;2023-04-03T02:12:50;99605.03;;;6.14;100.00
41830;BME280;38614;43.472;23.936;2023-04-03T02:15:39;99593.50;;;5.96;100.00
41830;BME280;38614;43.472;23.936;2023-04-03T02:18:27;99638.66;;;6.35;100.00
41830;BME280;38614;43.472;23.936;2023-04-03T02:21:14;99650.53;;;6.27;100.00
41830;BME280;38614;43.472;23.936;2023-04-03T02:24:02;99636.94;;;6.18;100.00
41830;BME280;38614;43.472;23.936;2023-04-03T02:26:50;99638.06;;;6.17;100.00
41830;BME280;38614;43.472;23.936;2023-04-03T02:29:38;99616.94;;;6.06;100.00
41830;BME280;38614;43.472;23.936;2023-04-03T02:32:26;99642.53;;;6.10;100.00
41830;BME280;38614;43.472;23.936;2023-04-03T02:35:15;99629.50;;;6.07;100.00
41830;BME280;38614;43.472;23.936;2023-04-03T02:38:03;99617.47;;;5.99;100.00
41830;BME280;38614;43.472;23.936;2023-04-03T02:40:51;99623.66;;;6.08;100.00
41830;BME280;38614;43.472;23.936;2023-04-03T02:43:39;99618.97;;;6.09;100.00
41830;BME280;38614;43.472;23.936;2023-04-03T02:46:27;99623.66;;;6.08;100.00
41830;BME280;38614;43.472;23.936;2023-04-03T02:49:16;99605.25;;;5.96;100.00
41830;BME280;38614;43.472;23.936;2023-04-03T02:52:04;99617.47;;;5.99;100.00
41830;BME280;38614;43.472;23.936;2023-04-03T02:54:52;99611.31;;;6.26;100.00
41830;BME280;38614;43.472;23.936;2023-04-03T02:57:39;99598.69;;;6.74;100.00
41830;BME280;38614;43.472;23.936;2023-04-03T03:00:27;99541.94;;;6.26;100.00
41830;BME280;38614;43.472;23.936;2023-04-03T03:03:15;99602.13;;;6.59;100.00
41830;BME280;38614;43.472;23.936;2023-04-03T03:06:09;99572.78;;;6.23;100.00
41830;BME280;38614;43.472;23.936;2023-04-03T03:08:59;99594.06;;;6.26;100.00
41830;BME280;38614;43.472;23.936;2023-04-03T03:11:46;99574.50;;;6.03;100.00
41830;BME280;38614;43.472;23.936;2023-04-03T03:14:34;99581.38;;;5.97;100.00
41830;BME280;38614;43.472;23.936;2023-04-03T03:17:22;99592.22;;;5.93;100.00
41830;BME280;38614;43.472;23.936;2023-04-03T03:20:10;99551.75;;;5.78;100.00
41830;BME280;38614;43.472;23.936;2023-04-03T03:22:58;99573.44;;;5.83;100.00
41830;BME280;38614;43.472;23.936;2023-04-03T03:25:46;99594.06;;;6.14;100.00
41830;BME280;38614;43.472;23.936;2023-04-03T03:28:35;99512.44;;;5.62;100.00
41830;BME280;38614;43.472;23.936;2023-04-03T03:31:25;99573.38;;;5.92;100.00
41830;BME280;38614;43.472;23.936;2023-04-03T03:34:12;99587.41;;;6.03;100.00
41830;BME280;38614;43.472;23.936;2023-04-03T03:37:00;99591.63;;;5.88;100.00
41830;BME280;38614;43.472;23.936;2023-04-03T03:39:49;99591.03;;;5.70;100.00
41830;BME280;38614;43.472;23.936;2023-04-03T03:42:37;99599.34;;;5.61;100.00
41830;BME280;38614;43.472;23.936;2023-04-03T03:45:25;99597.03;;;5.51;100.00
41830;BME280;38614;43.472;23.936;2023-04-03T03:48:13;99585.56;;;5.37;100.00
41830;BME280;38614;43.472;23.936;2023-04-03T03:51:00;99596.50;;;5.37;100.00
41830;BME280;38614;43.472;23.936;2023-04-03T03:53:52;99599.09;;;5.21;100.00
41830;BME280;38614;43.472;23.936;2023-04-03T03:56:40;99603.44;;;5.22;100.00
41830;BME280;38614;43.472;23.936;2023-04-03T03:59:28;99606.84;;;5.19;100.00
41830;BME280;38614;43.472;23.936;2023-04-03T04:02:16;99590.81;;;5.09;100.00
41830;BME280;38614;43.472;23.936;2023-04-03T04:05:04;99576.81;;;4.90;100.00
41830;BME280;38614;43.472;23.936;2023-04-03T04:07:52;99611.00;;;5.04;100.00
41830;BME280;38614;43.472;23.936;2023-04-03T04:10:45;99591.69;;;5.01;100.00
41830;BME280;38614;43.472;23.936;2023-04-03T04:13:36;99596.25;;;4.97;100.00
41830;BME280;38614;43.472;23.936;2023-04-03T04:16:24;99606.59;;;5.12;100.00
41830;BME280;38614;43.472;23.936;2023-04-03T04:19:13;99603.53;;;5.13;100.00
41830;BME280;38614;43.472;23.936;2023-04-03T04:22:04;99613.00;;;5.16;100.00
41830;BME280;38614;43.472;23.936;2023-04-03T04:24:52;99609.13;;;5.17;100.00
41830;BME280;38614;43.472;23.936;2023-04-03T04:27:40;99591.56;;;4.97;100.00
41830;BME280;38614;43.472;23.936;2023-04-03T04:30:28;99611.19;;;5.20;100.00
41830;BME280;38614;43.472;23.936;2023-04-03T04:33:17;99617.34;;;5.17;100.00
41830;BME280;38614;43.472;23.936;2023-04-03T04:36:05;99637.50;;;5.33;100.00
41830;BME280;38614;43.472;23.936;2023-04-03T04:38:54;99647.59;;;5.41;100.00
41830;BME280;38614;43.472;23.936;2023-04-03T04:41:45;99646.19;;;5.35;100.00
41830;BME280;38614;43.472;23.936;2023-04-03T04:44:33;99629.44;;;5.16;100.00
41830;BME280;38614;43.472;23.936;2023-04-03T04:47:20;99652.91;;;5.38;100.00
41830;BME280;38614;43.472;23.936;2023-04-03T04:50:09;99616.88;;;5.15;100.00
41830;BME280;38614;43.472;23.936;2023-04-03T04:52:57;99659.97;;;5.60;100.00
41830;BME280;38614;43.472;23.936;2023-04-03T04:55:45;99659.69;;;5.86;100.00
41830;BME280;38614;43.472;23.936;2023-04-03T04:58:33;99662.88;;;6.57;100.00
41830;BME280;38614;43.472;23.936;2023-04-03T05:01:22;99617.97;;;7.02;100.00
41830;BME280;38614;43.472;23.936;2023-04-03T05:04:17;99662.44;;;7.76;100.00
41830;BME280;38614;43.472;23.936;2023-04-03T05:07:09;99648.47;;;8.28;100.00
41830;BME280;38614;43.472;23.936;2023-04-03T05:09:57;99643.41;;;8.62;100.00
41830;BME280;38614;43.472;23.936;2023-04-03T05:12:47;99614.72;;;8.82;100.00
41830;BME280;38614;43.472;23.936;2023-04-03T05:15:35;99646.72;;;9.22;100.00
41830;BME280;38614;43.472;23.936;2023-04-03T05:18:23;99637.91;;;9.55;100.00
41830;BME280;38614;43.472;23.936;2023-04-03T05:21:13;99649.88;;;9.63;100.00
41830;BME280;38614;43.472;23.936;2023-04-03T05:24:01;99656.81;;;9.76;100.00
41830;BME280;38614;43.472;23.936;2023-04-03T05:26:52;99656.53;;;10.23;100.00
41830;BME280;38614;43.472;23.936;2023-04-03T05:29:40;99637.66;;;10.25;100.00
41830;BME280;38614;43.472;23.936;2023-04-03T05:32:36;99652.50;;;10.93;100.00
41830;BME280;38614;43.472;23.936;2023-04-03T05:35:50;99642.50;;;11.45;100.00
41830;BME280;38614;43.472;23.936;2023-04-03T05:38:43;99666.81;;;11.29;100.00
41830;BME280;38614;43.472;23.936;2023-04-03T05:41:32;99641.06;;;11.55;100.00
41830;BME280;38614;43.472;23.936;2023-04-03T05:44:20;99675.84;;;11.56;100.00
41830;BME280;38614;43.472;23.936;2023-04-03T05:47:09;99673.03;;;12.26;100.00
41830;BME280;38614;43.472;23.936;2023-04-03T05:50:04;99663.25;;;12.36;100.00
41830;BME280;38614;43.472;23.936;2023-04-03T05:52:55;99660.53;;;12.95;100.00
41830;BME280;38614;43.472;23.936;2023-04-03T05:55:45;99698.81;;;13.37;100.00
41830;BME280;38614;43.472;23.936;2023-04-03T05:58:35;99693.88;;;13.85;100.00
41830;BME280;38614;43.472;23.936;2023-04-03T06:01:23;99661.69;;;13.63;100.00
41830;BME280;38614;43.472;23.936;2023-04-03T06:04:11;99702.28;;;14.14;100.00
41830;BME280;38614;43.472;23.936;2023-04-03T06:06:59;99699.06;;;13.90;100.00
41830;BME280;38614;43.472;23.936;2023-04-03T06:09:48;99656.50;;;13.54;100.00
41830;BME280;38614;43.472;23.936;2023-04-03T06:12:36;99683.88;;;13.59;100.00
41830;BME280;38614;43.472;23.936;2023-04-03T06:15:24;99676.50;;;13.16;100.00
41830;BME280;38614;43.472;23.936;2023-04-03T06:18:12;99664.44;;;12.87;100.00
41830;BME280;38614;43.472;23.936;2023-04-03T06:21:00;99674.75;;;12.90;100.00
41830;BME280;38614;43.472;23.936;2023-04-03T06:23:50;99668.25;;;12.68;100.00
41830;BME280;38614;43.472;23.936;2023-04-03T06:26:38;99680.69;;;12.88;100.00
41830;BME280;38614;43.472;23.936;2023-04-03T06:29:29;99664.56;;;13.11;100.00
41830;BME280;38614;43.472;23.936;2023-04-03T06:32:17;99677.47;;;13.45;100.00
41830;BME280;38614;43.472;23.936;2023-04-03T06:35:05;99687.81;;;13.55;100.00
41830;BME280;38614;43.472;23.936;2023-04-03T06:37:54;99672.00;;;13.66;100.00
41830;BME280;38614;43.472;23.936;2023-04-03T06:40:42;99669.28;;;13.84;100.00
41830;BME280;38614;43.472;23.936;2023-04-03T06:43:30;99659.56;;;13.31;100.00
41830;BME280;38614;43.472;23.936;2023-04-03T06:46:22;99672.06;;;13.87;100.00
41830;BME280;38614;43.472;23.936;2023-04-03T06:49:09;99614.00;;;13.36;100.00
41830;BME280;38614;43.472;23.936;2023-04-03T06:51:57;99628.78;;;13.68;100.00
41830;BME280;38614;43.472;23.936;2023-04-03T06:54:48;99656.28;;;14.34;100.00
41830;BME280;38614;43.472;23.936;2023-04-03T06:57:36;99655.50;;;14.66;100.00
41830;BME280;38614;43.472;23.936;2023-04-03T07:00:24;99597.13;;;14.16;100.00
41830;BME280;38614;43.472;23.936;2023-04-03T07:03:12;99648.34;;;14.43;100.00
41830;BME280;38614;43.472;23.936;2023-04-03T07:06:00;99637.59;;;14.42;100.00
41830;BME280;38614;43.472;23.936;2023-04-03T07:08:49;99649.91;;;14.30;100.00
41830;BME280;38614;43.472;23.936;2023-04-03T07:11:36;99643.19;;;14.60;100.00
41830;BME280;38614;43.472;23.936;2023-04-03T07:14:24;99648.34;;;14.58;100.00
41830;BME280;38614;43.472;23.936;2023-04-03T07:17:12;99648.34;;;14.58;100.00
41830;BME280;38614;43.472;23.936;2023-04-03T07:20:00;99645.56;;;14.65;100.00
41830;BME280;38614;43.472;23.936;2023-04-03T07:22:50;99632.81;;;14.78;100.00
41830;BME280;38614;43.472;23.936;2023-04-03T07:25:43;99653.06;;;15.00;100.00
41830;BME280;38614;43.472;23.936;2023-04-03T07:28:31;99661.81;;;14.95;100.00
41830;BME280;38614;43.472;23.936;2023-04-03T07:31:19;99641.56;;;14.87;100.00
41830;BME280;38614;43.472;23.936;2023-04-03T07:34:08;99621.31;;;14.69;100.00
41830;BME280;38614;43.472;23.936;2023-04-03T07:36:55;99668.16;;;15.02;100.00
41830;BME280;38614;43.472;23.936;2023-04-03T07:39:44;99658.66;;;14.86;100.00
41830;BME280;38614;43.472;23.936;2023-04-03T07:42:32;99662.91;;;15.33;100.00
41830;BME280;38614;43.472;23.936;2023-04-03T07:45:20;99664.44;;;15.45;100.00
41830;BME280;38614;43.472;23.936;2023-04-03T07:48:07;99646.50;;;15.53;100.00
41830;BME280;38614;43.472;23.936;2023-04-03T07:50:59;99614.53;;;14.88;100.00
41830;BME280;38614;43.472;23.936;2023-04-03T07:53:48;99660.91;;;15.37;100.00
41830;BME280;38614;43.472;23.936;2023-04-03T07:56:36;99647.81;;;15.30;100.00
41830;BME280;38614;43.472;23.936;2023-04-03T07:59:23;99659.63;;;15.59;100.00
41830;BME280;38614;43.472;23.936;2023-04-03T08:02:12;99658.97;;;15.23;100.00
41830;BME280;38614;43.472;23.936;2023-04-03T08:05:00;99662.47;;;15.45;100.00
41830;BME280;38614;43.472;23.936;2023-04-03T08:07:48;99665.66;;;15.40;100.00
41830;BME280;38614;43.472;23.936;2023-04-03T08:10:36;99644.72;;;15.98;100.00
41830;BME280;38614;43.472;23.936;2023-04-03T08:13:27;99658.88;;;16.29;100.00
41830;BME280;38614;43.472;23.936;2023-04-03T08:16:20;99666.06;;;16.22;100.00
41830;BME280;38614;43.472;23.936;2023-04-03T08:19:09;99664.22;;;15.98;100.00
41830;BME280;38614;43.472;23.936;2023-04-03T08:22:11;99652.53;;;16.21;100.00
41830;BME280;38614;43.472;23.936;2023-04-03T08:24:59;99618.63;;;16.30;100.00
41830;BME280;38614;43.472;23.936;2023-04-03T08:27:47;99641.31;;;16.32;100.00
41830;BME280;38614;43.472;23.936;2023-04-03T08:30:35;99650.31;;;15.94;100.00
41830;BME280;38614;43.472;23.936;2023-04-03T08:33:23;99647.06;;;16.07;100.00
41830;BME280;38614;43.472;23.936;2023-04-03T08:36:22;99607.66;;;16.05;100.00
41830;BME280;38614;43.472;23.936;2023-04-03T08:39:11;99633.91;;;16.59;100.00
41830;BME280;38614;43.472;23.936;2023-04-03T08:42:02;99633.22;;;16.44;100.00
41830;BME280;38614;43.472;23.936;2023-04-03T08:48:04;99615.59;;;16.54;100.00
41830;BME280;38614;43.472;23.936;2023-04-03T08:50:57;99625.09;;;16.64;100.00
41830;BME280;38614;43.472;23.936;2023-04-03T08:53:59;99571.03;;;16.51;100.00
41830;BME280;38614;43.472;23.936;2023-04-03T08:56:49;99566.78;;;16.80;100.00
41830;BME280;38614;43.472;23.936;2023-04-03T08:59:38;99608.97;;;16.86;100.00
41830;BME280;38614;43.472;23.936;2023-04-03T09:02:53;99600.78;;;16.68;100.00
41830;BME280;38614;43.472;23.936;2023-04-03T09:06:02;99602.41;;;17.03;100.00
41830;BME280;38614;43.472;23.936;2023-04-03T09:09:16;99558.53;;;17.34;100.00
41830;BME280;38614;43.472;23.936;2023-04-03T09:12:18;99613.53;;;18.49;100.00
41830;BME280;38614;43.472;23.936;2023-04-03T09:18:27;99603.75;;;17.87;100.00
41830;BME280;38614;43.472;23.936;2023-04-03T09:21:45;99605.91;;;18.03;100.00
41830;BME280;38614;43.472;23.936;2023-04-03T09:24:33;99617.34;;;18.62;100.00
41830;BME280;38614;43.472;23.936;2023-04-03T09:27:21;99561.66;;;18.21;100.00
41830;BME280;38614;43.472;23.936;2023-04-03T09:30:20;99618.91;;;18.63;100.00
41830;BME280;38614;43.472;23.936;2023-04-03T09:33:09;99614.84;;;19.31;100.00
41830;BME280;38614;43.472;23.936;2023-04-03T09:35:58;99603.16;;;19.92;100.00
41830;BME280;38614;43.472;23.936;2023-04-03T09:39:02;99614.63;;;19.22;99.76
41830;BME280;38614;43.472;23.936;2023-04-03T09:44:58;99623.28;;;19.87;96.34
41830;BME280;38614;43.472;23.936;2023-04-03T09:47:46;99619.66;;;19.30;96.06
41830;BME280;38614;43.472;23.936;2023-04-03T09:50:35;99623.47;;;19.40;99.41
41830;BME280;38614;43.472;23.936;2023-04-03T09:53:34;99620.00;;;19.32;100.00
41830;BME280;38614;43.472;23.936;2023-04-03T09:56:32;99621.53;;;19.37;95.98
41830;BME280;38614;43.472;23.936;2023-04-03T09:59:24;99614.63;;;19.42;100.00
41830;BME280;38614;43.472;23.936;2023-04-03T10:02:35;99619.50;;;18.01;96.87
41830;BME280;38614;43.472;23.936;2023-04-03T10:05:28;99614.09;;;18.40;96.80
41830;BME280;38614;43.472;23.936;2023-04-03T10:11:08;99596.25;;;18.31;94.69
41830;BME280;38614;43.472;23.936;2023-04-03T10:13:58;99550.53;;;17.36;99.91
41830;BME280;38614;43.472;23.936;2023-04-03T10:17:02;99589.34;;;18.39;99.26
41830;BME280;38614;43.472;23.936;2023-04-03T10:20:49;99597.19;;;18.24;100.00
41830;BME280;38614;43.472;23.936;2023-04-03T10:23:36;99577.59;;;18.47;100.00
41830;BME280;38614;43.472;23.936;2023-04-03T10:29:52;99569.47;;;17.52;98.63
41830;BME280;38614;43.472;23.936;2023-04-03T10:33:11;99575.66;;;17.67;98.08
41830;BME280;38614;43.472;23.936;2023-04-03T10:46:05;99554.25;;;17.26;96.91
41830;BME280;38614;43.472;23.936;2023-04-03T10:51:45;99552.38;;;17.47;100.00
41830;BME280;38614;43.472;23.936;2023-04-03T10:54:55;99538.50;;;17.39;99.84
41830;BME280;38614;43.472;23.936;2023-04-03T10:57:46;99507.34;;;17.45;100.00
41830;BME280;38614;43.472;23.936;2023-04-03T11:00:48;99529.66;;;17.18;97.01
41830;BME280;38614;43.472;23.936;2023-04-03T11:03:47;99535.72;;;17.39;100.00
41830;BME280;38614;43.472;23.936;2023-04-03T11:06:40;99500.38;;;17.56;100.00
41830;BME280;38614;43.472;23.936;2023-04-03T11:09:34;99520.84;;;17.77;100.00
41830;BME280;38614;43.472;23.936;2023-04-03T11:12:46;99525.41;;;17.36;100.00
41830;BME280;38614;43.472;23.936;2023-04-03T11:15:36;99518.94;;;17.43;100.00
41830;BME280;38614;43.472;23.936;2023-04-03T11:18:49;99515.25;;;17.50;100.00
41830;BME280;38614;43.472;23.936;2023-04-03T11:21:42;99516.44;;;17.49;100.00
41830;BME280;38614;43.472;23.936;2023-04-03T11:24:33;99502.00;;;17.54;100.00
41830;BME280;38614;43.472;23.936;2023-04-03T11:27:23;99488.38;;;17.32;100.00
41830;BME280;38614;43.472;23.936;2023-04-03T11:30:46;99480.88;;;17.53;100.00
41830;BME280;38614;43.472;23.936;2023-04-03T11:34:03;99504.09;;;17.50;100.00
41830;BME280;38614;43.472;23.936;2023-04-03T11:36:56;99502.22;;;17.66;98.88
41830;BME280;38614;43.472;23.936;2023-04-03T11:39:54;99483.72;;;17.76;100.00
41830;BME280;38614;43.472;23.936;2023-04-03T11:42:49;99489.22;;;18.07;99.08
41830;BME280;38614;43.472;23.936;2023-04-03T11:45:58;99492.53;;;17.48;100.00
41830;BME280;38614;43.472;23.936;2023-04-03T11:48:50;99480.38;;;17.04;100.00
41830;BME280;38614;43.472;23.936;2023-04-03T11:51:45;99493.97;;;17.32;100.00
41830;BME280;38614;43.472;23.936;2023-04-03T11:54:44;99479.59;;;17.30;98.15
41830;BME280;38614;43.472;23.936;2023-04-03T12:00:51;99481.91;;;17.08;97.23
41830;BME280;38614;43.472;23.936;2023-04-03T12:12:37;99482.00;;;17.01;97.87
41830;BME280;38614;43.472;23.936;2023-04-03T12:15:50;99485.22;;;17.00;100.00
41830;BME280;38614;43.472;23.936;2023-04-03T12:18:44;99481.91;;;17.08;100.00
41830;BME280;38614;43.472;23.936;2023-04-03T12:24:40;99484.28;;;17.64;98.17
41830;BME280;38614;43.472;23.936;2023-04-03T12:27:33;99475.97;;;17.60;97.75
41830;BME280;38614;43.472;23.936;2023-04-03T12:30:26;99476.50;;;17.25;96.75
41830;BME280;38614;43.472;23.936;2023-04-03T12:33:36;99446.91;;;17.00;97.07
41830;BME280;38614;43.472;23.936;2023-04-03T12:36:33;99473.34;;;17.23;100.00
41830;BME280;38614;43.472;23.936;2023-04-03T12:39:42;99475.88;;;17.14;100.00
41830;BME280;38614;43.472;23.936;2023-04-03T12:42:44;99467.91;;;16.81;100.00
41830;BME280;38614;43.472;23.936;2023-04-03T12:45:44;99463.91;;;16.48;100.00
41830;BME280;38614;43.472;23.936;2023-04-03T12:51:37;99445.81;;;16.60;100.00
41830;BME280;38614;43.472;23.936;2023-04-03T12:54:31;99446.44;;;16.75;100.00
41830;BME280;38614;43.472;23.936;2023-04-03T12:57:24;99462.03;;;17.03;100.00
41830;BME280;38614;43.472;23.936;2023-04-03T13:03:22;99451.94;;;16.82;100.00
41830;BME280;38614;43.472;23.936;2023-04-03T13:06:24;99447.41;;;16.61;100.00
41830;BME280;38614;43.472;23.936;2023-04-03T13:09:28;99449.81;;;16.93;100.00
41830;BME280;38614;43.472;23.936;2023-04-03T13:12:16;99438.75;;;16.86;100.00
41830;BME280;38614;43.472;23.936;2023-04-03T13:18:25;99437.91;;;16.55;100.00
41830;BME280;38614;43.472;23.936;2023-04-03T13:21:18;99417.03;;;16.70;100.00
41830;BME280;38614;43.472;23.936;2023-04-03T13:24:08;99420.88;;;16.80;100.00
41830;BME280;38614;43.472;23.936;2023-04-03T13:27:03;99387.59;;;16.32;100.00
41830;BME280;38614;43.472;23.936;2023-04-03T13:29:54;99425.03;;;16.65;100.00
41830;BME280;38614;43.472;23.936;2023-04-03T13:32:44;99417.03;;;16.70;100.00
41830;BME280;38614;43.472;23.936;2023-04-03T13:35:40;99417.81;;;16.71;100.00
41830;BME280;38614;43.472;23.936;2023-04-03T13:38:30;99416.44;;;16.52;100.00
41830;BME280;38614;43.472;23.936;2023-04-03T13:41:42;99368.94;;;16.25;100.00
41830;BME280;38614;43.472;23.936;2023-04-03T13:47:22;99377.72;;;16.23;100.00
41830;BME280;38614;43.472;23.936;2023-04-03T13:53:14;99367.13;;;16.11;100.00
41830;BME280;38614;43.472;23.936;2023-04-03T13:56:08;99373.06;;;16.13;100.00
41830;BME280;38614;43.472;23.936;2023-04-03T13:59:21;99341.09;;;15.87;100.00
41830;BME280;38614;43.472;23.936;2023-04-03T14:02:15;99363.28;;;15.98;100.00
41830;BME280;38614;43.472;23.936;2023-04-03T14:05:04;99362.72;;;15.73;100.00
41830;BME280;38614;43.472;23.936;2023-04-03T14:07:55;99358.78;;;15.74;100.00
41830;BME280;38614;43.472;23.936;2023-04-03T14:10:46;99361.63;;;15.63;100.00
41830;BME280;38614;43.472;23.936;2023-04-03T14:13:34;99343.41;;;15.51;100.00
41830;BME280;38614;43.472;23.936;2023-04-03T14:16:26;99295.75;;;14.97;100.00
41830;BME280;38614;43.472;23.936;2023-04-03T14:19:19;99387.91;;;15.58;100.00
41830;BME280;38614;43.472;23.936;2023-04-03T14:25:05;99352.47;;;15.18;100.00
41830;BME280;38614;43.472;23.936;2023-04-03T14:27:53;99397.72;;;15.25;100.00
41830;BME280;38614;43.472;23.936;2023-04-03T14:30:41;99388.66;;;15.18;100.00
41830;BME280;38614;43.472;23.936;2023-04-03T14:33:29;99381.97;;;15.04;100.00
41830;BME280;38614;43.472;23.936;2023-04-03T14:36:24;99371.66;;;14.98;100.00
41830;BME280;38614;43.472;23.936;2023-04-03T14:39:17;99417.72;;;15.06;100.00
41830;BME280;38614;43.472;23.936;2023-04-03T14:42:05;99396.38;;;14.85;100.00
41830;BME280;38614;43.472;23.936;2023-04-03T14:44:54;99415.06;;;14.85;100.00
41830;BME280;38614;43.472;23.936;2023-04-03T14:47:46;99402.41;;;14.80;100.00
41830;BME280;38614;43.472;23.936;2023-04-03T14:50:35;99411.91;;;14.82;100.00
41830;BME280;38614;43.472;23.936;2023-04-03T14:53:23;99404.81;;;14.67;100.00
41830;BME280;38614;43.472;23.936;2023-04-03T14:56:26;99410.44;;;14.57;100.00
41830;BME280;38614;43.472;23.936;2023-04-03T14:59:17;99408.03;;;14.62;100.00
41830;BME280;38614;43.472;23.936;2023-04-03T15:05:15;99390.19;;;14.42;100.00
41830;BME280;38614;43.472;23.936;2023-04-03T15:08:03;99402.94;;;14.46;100.00
41830;BME280;38614;43.472;23.936;2023-04-03T15:10:53;99391.06;;;14.28;100.00
41830;BME280;38614;43.472;23.936;2023-04-03T15:13:42;99394.66;;;14.25;100.00
41830;BME280;38614;43.472;23.936;2023-04-03T15:16:33;99408.53;;;14.29;100.00
41830;BME280;38614;43.472;23.936;2023-04-03T15:19:20;99413.34;;;14.10;100.00
41830;BME280;38614;43.472;23.936;2023-04-03T15:22:18;99402.22;;;14.03;100.00
41830;BME280;38614;43.472;23.936;2023-04-03T15:25:07;99410.59;;;14.00;100.00
41830;BME280;38614;43.472;23.936;2023-04-03T15:27:55;99416.94;;;13.82;100.00
41830;BME280;38614;43.472;23.936;2023-04-03T15:30:43;99421.72;;;13.67;100.00
41830;BME280;38614;43.472;23.936;2023-04-03T15:33:33;99423.31;;;13.58;100.00
41830;BME280;38614;43.472;23.936;2023-04-03T15:36:21;99387.63;;;13.24;100.00
41830;BME280;38614;43.472;23.936;2023-04-03T15:39:20;99421.34;;;13.40;100.00
41830;BME280;38614;43.472;23.936;2023-04-03T15:42:13;99425.28;;;13.25;100.00
41830;BME280;38614;43.472;23.936;2023-04-03T15:45:01;99422.84;;;13.09;100.00
41830;BME280;38614;43.472;23.936;2023-04-03T15:47:49;99411.34;;;13.11;100.00
41830;BME280;38614;43.472;23.936;2023-04-03T15:50:38;99422.88;;;13.13;100.00
41830;BME280;38614;43.472;23.936;2023-04-03T15:53:26;99436.34;;;13.18;100.00
41830;BME280;38614;43.472;23.936;2023-04-03T15:56:14;99399.78;;;12.84;100.00
41830;BME280;38614;43.472;23.936;2023-04-03T15:59:02;99433.47;;;12.82;100.00
41830;BME280;38614;43.472;23.936;2023-04-03T16:01:50;99437.44;;;12.81;100.00